Time;durP1;ratioP1;P1;durP2;ratioP2;P2;SDS_P1;SDS_P2;PMS_P1;PMS_P2;Temp;Humidity;BMP_temperature;BMP_pressure;BME280_temperature;BME280_humidity;BME280_pressure;Samples;Min_cycle;Max_cycle;Signal;HPM_P1;HPM_P2
2023/12/19 00:00:46;;;;;;;1.20;1.10;;;;;;;2.38;100.00;101805.31;5067540;28;20742;-85
2023/12/19 00:03:12;;;;;;;0.60;0.60;;;;;;;2.42;100.00;101800.38;5064136;28;20128;-84
2023/12/19 00:05:40;;;;;;;0.60;0.60;;;;;;;1.65;100.00;101687.34;5066270;28;20044;-84
2023/12/19 00:08:07;;;;;;;0.68;0.68;;;;;;;1.82;100.00;101698.66;5058982;28;20051;-83
2023/12/19 00:10:33;;;;;;;2.45;2.35;;;;;;;2.33;100.00;101792.97;5047344;28;20089;-84
2023/12/19 00:12:59;;;;;;;1.23;1.23;;;;;;;2.24;100.00;101797.63;5062511;28;20139;-82
2023/12/19 00:15:25;;;;;;;0.70;0.70;;;;;;;1.32;100.00;101621.69;5067567;28;20143;-84
2023/12/19 00:17:51;;;;;;;6.32;5.70;;;;;;;2.24;100.00;101773.44;5061424;28;20480;-82
2023/12/19 00:20:16;;;;;;;3.88;3.70;;;;;;;2.35;100.00;101818.09;5066026;28;20045;-82
2023/12/19 00:22:42;;;;;;;3.92;3.63;;;;;;;2.26;100.00;101782.19;5066375;28;20055;-83
2023/12/19 00:25:07;;;;;;;7.00;6.68;;;;;;;2.16;100.00;101826.53;5048278;28;20090;-83
2023/12/19 00:27:34;;;;;;;3.35;3.20;;;;;;;1.73;100.00;101767.09;5045242;28;20152;-82
2023/12/19 00:29:59;;;;;;;2.08;1.98;;;;;;;1.40;100.00;101715.19;5064506;28;20197;-81
2023/12/19 00:32:25;;;;;;;0.30;0.30;;;;;;;1.76;100.00;101719.03;5061375;28;20158;-83
2023/12/19 00:34:51;;;;;;;0.85;0.85;;;;;;;1.73;100.00;101710.19;5064735;28;20145;-83
2023/12/19 00:37:16;;;;;;;2.08;1.98;;;;;;;2.29;100.00;101822.13;5060981;28;20025;-82
2023/12/19 00:39:42;;;;;;;0.85;0.85;;;;;;;1.62;100.00;101717.34;5061342;28;20393;-85
2023/12/19 00:42:07;;;;;;;1.42;1.33;;;;;;;2.26;100.00;101823.63;5063217;28;20047;-83
2023/12/19 00:44:36;;;;;;;3.55;2.15;;;;;;;2.31;100.00;101820.47;5048941;28;20459;-83
2023/12/19 00:47:02;;;;;;;1.50;1.40;;;;;;;1.97;100.00;101746.94;5043618;28;20108;-82
2023/12/19 00:49:29;;;;;;;0.98;0.90;;;;;;;2.27;100.00;101815.97;5072922;28;20117;-82
2023/12/19 00:51:54;;;;;;;3.72;3.53;;;;;;;1.65;100.00;101717.50;5077931;28;20109;-83
2023/12/19 00:54:20;;;;;;;0.40;0.40;;;;;;;2.05;100.00;101833.66;5069413;28;20048;-85
2023/12/19 00:56:45;;;;;;;3.17;2.88;;;;;;;1.84;100.00;101820.38;5071843;28;20040;-84
2023/12/19 00:59:11;;;;;;;0.30;0.30;;;;;;;1.75;100.00;101833.66;5071881;28;20053;-83
2023/12/19 01:01:36;;;;;;;1.20;1.20;;;;;;;1.86;100.00;101816.19;5073533;28;20044;-82
2023/12/19 01:04:02;;;;;;;0.30;0.30;;;;;;;2.17;100.00;101839.53;5054623;28;20029;-80
2023/12/19 01:06:28;;;;;;;1.05;0.50;;;;;;;1.53;100.00;101733.22;5046040;28;20048;-82
2023/12/19 01:08:54;;;;;;;2.65;2.55;;;;;;;2.08;100.00;101797.59;5057706;28;20033;-79
2023/12/19 01:11:19;;;;;;;0.88;0.88;;;;;;;1.86;100.00;101809.31;5060800;28;20519;-81
2023/12/19 01:13:45;;;;;;;3.90;3.45;;;;;;;1.41;100.00;101748.91;5033000;28;20559;-82
2023/12/19 01:16:13;;;;;;;4.15;3.38;;;;;;;1.45;100.00;101716.34;5064270;28;20064;-82
2023/12/19 01:18:39;;;;;;;2.10;2.00;;;;;;;2.13;100.00;101840.19;5061911;28;20089;-82
2023/12/19 01:21:05;;;;;;;2.10;1.95;;;;;;;1.23;100.00;101641.84;5064056;28;20041;-81
2023/12/19 01:23:32;;;;;;;2.00;1.90;;;;;;;1.53;100.00;101719.41;5060773;28;20144;-80
2023/12/19 01:25:59;;;;;;;0.73;0.60;;;;;;;2.19;100.00;101834.44;5055744;28;20055;-81
2023/12/19 01:28:24;;;;;;;0.68;0.68;;;;;;;1.41;100.00;101715.31;5059298;28;20043;-81
2023/12/19 01:30:50;;;;;;;0.40;0.40;;;;;;;1.94;100.00;101806.25;5063239;28;20044;-82
2023/12/19 01:33:15;;;;;;;1.55;1.45;;;;;;;1.60;100.00;101796.56;5059887;28;20052;-84
2023/12/19 01:35:41;;;;;;;4.00;3.80;;;;;;;1.66;100.00;101808.16;5060921;28;20495;-83
2023/12/19 01:38:06;;;;;;;1.35;1.35;;;;;;;1.69;100.00;101779.00;5056669;28;20086;-82
2023/12/19 01:40:32;;;;;;;2.38;2.28;;;;;;;1.02;100.00;101695.75;5042948;28;20040;-82
2023/12/19 01:42:58;;;;;;;1.25;1.13;;;;;;;1.01;100.00;101709.50;5042626;28;20488;-82
2023/12/19 01:45:28;;;;;;;1.13;1.13;;;;;;;1.70;100.00;101798.88;5058587;28;20047;-82
2023/12/19 01:47:54;;;;;;;3.35;3.15;;;;;;;1.74;100.00;101816.38;5058172;28;20537;-82
2023/12/19 01:50:20;;;;;;;3.28;3.10;;;;;;;1.58;100.00;101786.09;5057090;28;20052;-80
2023/12/19 01:52:53;;;;;;;0.50;0.50;;;;;;;0.75;100.00;101675.25;5058657;28;20059;-80
2023/12/19 01:55:20;;;;;;;2.42;1.40;;;;;;;0.78;100.00;101692.63;5059073;28;20496;-81
2023/12/19 01:57:46;;;;;;;0.50;0.50;;;;;;;0.80;100.00;101707.41;5053716;28;20040;-80
2023/12/19 02:00:13;;;;;;;20.45;16.17;;;;;;;0.88;100.00;101694.06;5041261;28;20455;-80
2023/12/19 02:02:40;;;;;;;1.40;1.30;;;;;;;1.01;100.00;101715.56;5062979;28;20468;-81
2023/12/19 02:05:07;;;;;;;0.57;0.57;;;;;;;1.25;100.00;101759.16;5057185;28;20048;-81
2023/12/19 02:07:33;;;;;;;1.88;1.77;;;;;;;1.25;100.00;101770.38;5054656;28;20539;-80
2023/12/19 02:10:00;;;;;;;0.28;0.28;;;;;;;1.47;100.00;101798.44;5057142;28;20063;-82
2023/12/19 02:12:26;;;;;;;0.60;0.60;;;;;;;1.53;100.00;101782.38;5053564;28;20155;-80
2023/12/19 02:14:52;;;;;;;4.78;4.55;;;;;;;1.57;100.00;101791.19;5052986;28;20102;-81
2023/12/19 02:17:18;;;;;;;2.97;2.88;;;;;;;1.19;100.00;101738.09;5056620;28;20044;-79
2023/12/19 02:19:45;;;;;;;4.30;4.10;;;;;;;1.43;100.00;101764.53;5058801;28;20538;-79
2023/12/19 02:22:11;;;;;;;0.38;0.38;;;;;;;1.00;100.00;101700.81;5059932;28;20041;-80
2023/12/19 02:24:37;;;;;;;1.58;1.48;;;;;;;1.42;100.00;101776.56;5057352;28;20040;-79
2023/12/19 02:27:06;;;;;;;5.68;5.30;;;;;;;1.54;100.00;101796.19;5060809;28;20399;-80
2023/12/19 02:29:31;;;;;;;2.95;2.85;;;;;;;1.64;100.00;101794.25;5053645;28;20296;-81
2023/12/19 02:31:58;;;;;;;0.40;0.40;;;;;;;1.11;100.00;101706.66;5054465;28;20442;-80
2023/12/19 02:34:23;;;;;;;0.35;0.35;;;;;;;1.17;100.00;101794.91;5042032;28;20087;-80
2023/12/19 02:36:49;;;;;;;1.77;1.67;;;;;;;0.70;100.00;101696.41;5055929;28;20457;-81
2023/12/19 02:39:15;;;;;;;7.25;6.95;;;;;;;1.46;100.00;101809.56;5056127;28;20445;-79
2023/12/19 02:41:40;;;;;;;0.77;0.77;;;;;;;1.03;100.00;101713.03;5056830;28;20048;-81
2023/12/19 02:44:06;;;;;;;3.47;3.28;;;;;;;1.50;100.00;101791.63;5055885;28;20106;-82
2023/12/19 02:46:32;;;;;;;0.60;0.60;;;;;;;1.69;100.00;101817.78;5059649;28;20402;-81
2023/12/19 02:48:58;;;;;;;1.10;1.05;;;;;;;1.56;100.00;101811.00;5059650;28;20059;-81
2023/12/19 02:51:24;;;;;;;23.23;11.48;;;;;;;1.42;100.00;101796.34;5059921;28;20107;-81
2023/12/19 02:53:51;;;;;;;2.95;2.85;;;;;;;0.92;100.00;101720.16;5057032;28;20040;-81
2023/12/19 02:56:17;;;;;;;1.67;1.58;;;;;;;0.76;100.00;101683.88;5062451;28;20040;-82
2023/12/19 02:58:42;;;;;;;2.72;2.58;;;;;;;1.11;100.00;101753.16;5045906;28;20045;-82
2023/12/19 03:01:09;;;;;;;2.80;2.63;;;;;;;0.90;100.00;101688.16;5065627;28;20036;-82
2023/12/19 03:03:35;;;;;;;0.60;0.60;;;;;;;1.66;100.00;101827.94;5063213;28;20475;-80
2023/12/19 03:06:01;;;;;;;5.00;4.57;;;;;;;0.68;100.00;101667.94;5043270;28;20036;-81
2023/12/19 03:08:27;;;;;;;6.22;5.80;;;;;;;1.42;100.00;101804.13;5051120;28;20404;-81
2023/12/19 03:10:54;;;;;;;2.65;2.55;;;;;;;1.57;100.00;101827.41;5046247;28;20501;-80
2023/12/19 03:13:20;;;;;;;1.23;1.17;;;;;;;0.88;100.00;101694.94;5062769;28;20125;-81
2023/12/19 03:15:46;;;;;;;1.13;1.13;;;;;;;0.75;100.00;101687.25;5060424;28;20024;-81
2023/12/19 03:18:11;;;;;;;2.17;1.83;;;;;;;1.39;100.00;101784.13;5059126;28;20488;-81
2023/12/19 03:20:37;;;;;;;0.90;0.90;;;;;;;0.83;100.00;101728.25;5058564;28;20556;-81
2023/12/19 03:23:03;;;;;;;1.83;1.73;;;;;;;0.33;100.00;101622.78;5051292;28;20048;-81
2023/12/19 03:25:29;;;;;;;0.43;0.43;;;;;;;1.38;100.00;101796.97;5023391;28;20045;-81
2023/12/19 03:27:55;;;;;;;0.50;0.50;;;;;;;1.52;100.00;101803.84;5061281;28;20094;-81
2023/12/19 03:30:20;;;;;;;1.02;0.93;;;;;;;1.00;100.00;101713.75;5062463;28;20036;-81
2023/12/19 03:32:46;;;;;;;0.38;0.38;;;;;;;0.92;100.00;101702.06;5046933;28;20146;-80
2023/12/19 03:35:12;;;;;;;1.05;0.95;;;;;;;1.63;100.00;101807.97;5043927;28;20045;-80
2023/12/19 03:37:38;;;;;;;5.15;4.90;;;;;;;1.52;100.00;101802.97;5054180;28;20095;-83
2023/12/19 03:40:05;;;;;;;2.15;2.05;;;;;;;1.45;100.00;101769.00;5063588;28;20081;-83
2023/12/19 03:42:31;;;;;;;1.50;1.42;;;;;;;1.52;100.00;101779.69;5058715;28;20144;-82
2023/12/19 03:44:57;;;;;;;1.33;1.30;;;;;;;1.63;100.00;101789.84;5050070;28;20052;-82
2023/12/19 03:47:23;;;;;;;1.23;1.13;;;;;;;1.29;100.00;101748.22;5062012;28;20159;-82
2023/12/19 03:49:48;;;;;;;0.47;0.47;;;;;;;1.25;100.00;101716.09;5063943;28;20528;-82
2023/12/19 03:52:14;;;;;;;1.88;1.77;;;;;;;1.40;100.00;101765.22;5047807;28;20032;-83
2023/12/19 03:54:39;;;;;;;0.43;0.43;;;;;;;1.19;100.00;101727.75;5062093;28;20106;-82
2023/12/19 03:57:05;;;;;;;0.95;0.95;;;;;;;1.34;100.00;101731.25;5062666;28;20048;-80
2023/12/19 03:59:31;;;;;;;4.85;4.55;;;;;;;1.53;100.00;101753.91;5061416;28;20048;-79
2023/12/19 04:01:59;;;;;;;1.38;1.15;;;;;;;1.02;100.00;101673.38;5063950;28;20055;-81
2023/12/19 04:04:25;;;;;;;6.28;5.13;;;;;;;0.96;100.00;101673.03;5046351;28;20035;-80
2023/12/19 04:06:51;;;;;;;0.82;0.82;;;;;;;0.93;100.00;101651.28;5065060;28;20423;-80
2023/12/19 04:09:17;;;;;;;1.92;1.88;;;;;;;0.95;100.00;101658.31;5062959;28;20355;-81
2023/12/19 04:11:47;;;;;;;3.63;3.42;;;;;;;1.56;100.00;101776.47;5056349;28;20060;-81
2023/12/19 04:14:16;;;;;;;0.40;0.40;;;;;;;0.99;100.00;101669.75;5062815;28;20036;-80
2023/12/19 04:16:41;;;;;;;8.50;8.13;;;;;;;0.95;100.00;101655.72;5060924;28;20071;-82
2023/12/19 04:19:07;;;;;;;0.50;0.50;;;;;;;1.44;100.00;101736.16;5063977;28;20125;-80
2023/12/19 04:21:33;;;;;;;1.48;0.65;;;;;;;1.32;100.00;101748.38;5060443;28;20040;-78
2023/12/19 04:23:58;;;;;;;0.85;0.85;;;;;;;0.77;100.00;101663.31;5063192;28;20053;-78
2023/12/19 04:26:24;;;;;;;4.65;4.45;;;;;;;0.88;100.00;101650.13;5061370;28;20064;-80
2023/12/19 04:28:50;;;;;;;17.30;16.10;;;;;;;0.93;100.00;101697.78;5061929;28;20078;-80
2023/12/19 04:31:15;;;;;;;0.40;0.40;;;;;;;1.56;100.00;101777.38;5047901;28;20040;-80
2023/12/19 04:33:41;;;;;;;0.45;0.45;;;;;;;0.62;100.00;101688.19;5064577;28;20101;-79
2023/12/19 04:36:09;;;;;;;0.90;0.90;;;;;;;-0.54;100.00;101564.09;5064917;28;20144;-80
2023/12/19 04:38:36;;;;;;;4.65;4.40;;;;;;;1.17;100.00;101788.81;5036013;28;20049;-79
2023/12/19 04:41:03;;;;;;;2.45;2.25;;;;;;;0.77;100.00;101688.22;5042581;28;20063;-80
2023/12/19 04:43:28;;;;;;;8.40;7.82;;;;;;;0.81;100.00;101693.66;5061306;28;20036;-80
2023/12/19 04:45:54;;;;;;;2.55;2.45;;;;;;;0.67;100.00;101691.06;5061404;28;20454;-79
2023/12/19 04:48:19;;;;;;;0.85;0.85;;;;;;;0.84;100.00;101729.13;5063530;28;20508;-78
2023/12/19 04:50:45;;;;;;;3.00;2.83;;;;;;;1.45;100.00;101807.78;5060687;28;20052;-81
2023/12/19 04:53:10;;;;;;;4.70;4.47;;;;;;;1.41;100.00;101807.50;5058451;28;20049;-80
2023/12/19 04:55:36;;;;;;;1.65;1.55;;;;;;;1.33;100.00;101785.47;5056541;28;20032;-80
2023/12/19 04:58:02;;;;;;;5.93;5.63;;;;;;;1.36;100.00;101785.63;5043745;28;20489;-80
2023/12/19 05:00:28;;;;;;;1.42;1.33;;;;;;;1.11;100.00;101801.41;5058814;28;20055;-78
2023/12/19 05:02:55;;;;;;;0.77;0.77;;;;;;;1.33;100.00;101812.22;5056889;28;22150;-78
2023/12/19 05:05:21;;;;;;;12.13;11.27;;;;;;;1.19;100.00;101813.06;5055794;28;20447;-78
2023/12/19 05:07:46;;;;;;;3.33;3.22;;;;;;;0.68;100.00;101834.91;5060583;28;20102;-81
2023/12/19 05:10:13;;;;;;;0.40;0.40;;;;;;;0.59;100.00;101796.50;5067100;28;20041;-81
2023/12/19 05:12:39;;;;;;;0.88;0.88;;;;;;;0.43;100.00;101696.53;5058052;28;21900;-80
2023/12/19 05:15:05;;;;;;;3.22;3.03;;;;;;;1.01;100.00;101834.44;5063046;28;20048;-80
2023/12/19 05:17:31;;;;;;;5.13;4.78;;;;;;;0.86;100.00;101748.22;5063339;28;20068;-81
2023/12/19 05:19:57;;;;;;;1.08;1.05;;;;;;;1.44;100.00;101836.13;5050855;28;20052;-80
2023/12/19 05:22:23;;;;;;;1.25;1.23;;;;;;;0.93;100.00;101728.81;5060148;28;20473;-83
2023/12/19 05:24:49;;;;;;;9.45;8.80;;;;;;;0.72;100.00;101712.91;5060278;28;20037;-82
2023/12/19 05:27:15;;;;;;;2.05;1.98;;;;;;;1.02;100.00;101770.72;5058871;28;20446;-80
2023/12/19 05:29:40;;;;;;;6.18;5.88;;;;;;;0.25;100.00;101701.44;5040284;28;20189;-78
2023/12/19 05:32:06;;;;;;;6.47;6.10;;;;;;;0.51;100.00;101709.91;5034594;28;20049;-80
2023/12/19 05:34:32;;;;;;;0.52;0.52;;;;;;;0.70;100.00;101745.47;5040211;28;20465;-80
2023/12/19 05:36:58;;;;;;;6.68;6.35;;;;;;;1.21;100.00;101816.66;5038967;28;20040;-80
2023/12/19 05:39:24;;;;;;;1.00;1.00;;;;;;;1.04;100.00;101798.44;5035533;28;20060;-80
2023/12/19 05:41:51;;;;;;;0.45;0.45;;;;;;;1.29;100.00;101841.28;5050796;28;20786;-80
2023/12/19 05:44:17;;;;;;;0.30;0.30;;;;;;;0.95;100.00;101761.69;5034985;28;20135;-80
2023/12/19 05:46:43;;;;;;;2.25;2.15;;;;;;;0.57;100.00;101729.25;5057268;28;20052;-82
2023/12/19 05:49:08;;;;;;;61.28;26.20;;;;;;;0.69;100.00;101723.94;5059957;28;20035;-83
2023/12/19 05:51:40;;;;;;;6.78;6.38;;;;;;;0.92;100.00;101826.09;5060983;28;20056;-81
2023/12/19 05:54:06;;;;;;;0.30;0.30;;;;;;;1.02;100.00;101820.69;5060027;28;20488;-81
2023/12/19 05:56:32;;;;;;;1.95;1.42;;;;;;;1.48;100.00;101839.00;5047325;28;20060;-81
2023/12/19 05:58:58;;;;;;;5.20;4.43;;;;;;;0.78;100.00;101729.66;5058248;28;20391;-80
2023/12/19 06:01:24;;;;;;;0.40;0.40;;;;;;;1.19;100.00;101855.31;5066377;28;20036;-79
2023/12/19 06:03:49;;;;;;;2.10;2.00;;;;;;;0.90;100.00;101772.56;5061220;28;20103;-80
2023/12/19 06:06:15;;;;;;;3.80;3.60;;;;;;;0.36;100.00;101726.22;5044250;28;20048;-81
2023/12/19 06:08:42;;;;;;;5.70;5.30;;;;;;;0.83;100.00;101834.16;5057714;28;20066;-81
2023/12/19 06:11:11;;;;;;;2.50;2.38;;;;;;;1.19;100.00;101863.06;5058241;28;20041;-79
2023/12/19 06:13:37;;;;;;;1.45;1.33;;;;;;;0.80;100.00;101805.56;5038778;28;20147;-82
2023/12/19 06:16:04;;;;;;;1.52;1.42;;;;;;;0.99;100.00;101855.81;5061785;28;20540;-82
2023/12/19 06:18:30;;;;;;;3.25;3.10;;;;;;;-0.04;100.00;101728.00;5043110;28;20052;-80
2023/12/19 06:20:55;;;;;;;4.85;4.55;;;;;;;0.82;100.00;101863.41;5062971;28;20052;-80
2023/12/19 06:23:22;;;;;;;0.57;0.52;;;;;;;0.68;100.00;101811.66;5062128;28;20113;-81
2023/12/19 06:25:49;;;;;;;6.22;5.93;;;;;;;1.39;100.00;101873.75;5061391;28;20084;-79
2023/12/19 06:28:16;;;;;;;5.32;5.07;;;;;;;1.38;100.00;101840.94;5055843;28;20069;-82
2023/12/19 06:30:42;;;;;;;1.70;1.60;;;;;;;0.75;100.00;101752.75;5045419;28;20053;-80
2023/12/19 06:33:08;;;;;;;0.40;0.40;;;;;;;0.86;100.00;101789.53;5064317;28;20048;-81
2023/12/19 06:35:33;;;;;;;4.82;4.60;;;;;;;1.24;100.00;101846.19;5064519;28;20076;-82
2023/12/19 06:37:59;;;;;;;5.55;5.18;;;;;;;1.07;100.00;101825.25;5068000;28;20048;-81
2023/12/19 06:40:25;;;;;;;7.85;7.05;;;;;;;1.41;100.00;101848.91;5064808;28;20133;-82
2023/12/19 06:42:50;;;;;;;23.42;21.05;;;;;;;1.27;100.00;101833.44;5066568;28;20123;-82
2023/12/19 06:45:16;;;;;;;7.13;6.57;;;;;;;1.43;100.00;101832.66;5040727;28;20420;-83
2023/12/19 06:47:41;;;;;;;1.50;1.40;;;;;;;1.27;100.00;101851.53;5039598;28;20586;-82
2023/12/19 06:50:08;;;;;;;9.07;7.40;;;;;;;1.30;100.00;101874.09;5072301;28;20127;-82
2023/12/19 06:52:34;;;;;;;7.63;7.28;;;;;;;1.40;100.00;101837.63;5066389;28;20024;-83
2023/12/19 06:55:00;;;;;;;1.60;1.50;;;;;;;1.60;100.00;101837.94;5068116;28;20037;-82
2023/12/19 06:57:29;;;;;;;5.72;5.25;;;;;;;1.20;100.00;101724.41;5063285;28;20650;-83
2023/12/19 06:59:54;;;;;;;8.00;7.30;;;;;;;1.36;100.00;101705.47;5053186;28;20055;-82
2023/12/19 07:02:20;;;;;;;0.95;0.95;;;;;;;1.62;100.00;101733.75;5064731;28;20849;-82
2023/12/19 07:04:45;;;;;;;13.45;12.07;;;;;;;2.21;100.00;101838.91;5047689;28;20559;-82
2023/12/19 07:07:11;;;;;;;22.55;5.47;;;;;;;1.24;100.00;101679.81;5067849;28;20036;-81
2023/12/19 07:09:37;;;;;;;0.70;0.70;;;;;;;1.66;100.00;101696.91;5048054;28;20376;-82
2023/12/19 07:12:03;;;;;;;4.15;3.95;;;;;;;2.38;100.00;101813.06;5064160;28;20086;-81
2023/12/19 07:14:29;;;;;;;4.45;4.10;;;;;;;2.13;100.00;101771.94;5062873;28;20055;-80
2023/12/19 07:16:55;;;;;;;3.50;3.30;;;;;;;1.97;100.00;101710.69;5047818;28;20412;-83
2023/12/19 07:19:21;;;;;;;1.05;0.95;;;;;;;2.22;100.00;101736.22;5045849;28;20474;-82
2023/12/19 07:21:48;;;;;;;0.30;0.30;;;;;;;2.28;100.00;101733.97;5047613;28;20041;-82
2023/12/19 07:24:14;;;;;;;0.50;0.50;;;;;;;2.14;100.00;101689.19;5044474;28;20044;-81
2023/12/19 07:26:41;;;;;;;6.95;5.78;;;;;;;3.01;100.00;101795.75;5044687;28;20045;-81
2023/12/19 07:29:08;;;;;;;0.50;0.50;;;;;;;2.56;100.00;101694.91;5044908;28;20054;-80
2023/12/19 07:31:34;;;;;;;13.13;7.22;;;;;;;2.44;100.00;101678.72;5041985;28;20749;-82
2023/12/19 07:34:03;;;;;;;1.13;1.10;;;;;;;2.56;100.00;101681.97;5050148;28;20488;-81
2023/12/19 07:36:29;;;;;;;2.97;2.78;;;;;;;2.99;100.00;101787.88;5049158;28;20103;-80
2023/12/19 07:38:55;;;;;;;1.38;1.27;;;;;;;2.92;100.00;101785.78;5049459;28;20045;-81
2023/12/19 07:41:22;;;;;;;1.73;1.63;;;;;;;2.23;100.00;101689.69;5044392;28;20057;-82
2023/12/19 07:43:48;;;;;;;13.82;13.07;;;;;;;2.10;100.00;101680.34;5045658;28;20187;-81
2023/12/19 07:46:14;;;;;;;4.95;4.68;;;;;;;2.85;100.00;101771.59;5046957;28;20477;-83
2023/12/19 07:48:40;;;;;;;2.35;2.25;;;;;;;3.10;100.00;101798.84;5043529;28;20069;-81
2023/12/19 07:51:08;;;;;;;1.15;1.13;;;;;;;2.98;100.00;101770.56;5039116;28;20785;-80
2023/12/19 07:53:34;;;;;;;1.35;1.27;;;;;;;2.88;100.00;101693.09;5043796;28;20161;-81
2023/12/19 07:56:05;;;;;;;0.60;0.60;;;;;;;3.10;100.00;101766.00;5043012;28;20192;-81
2023/12/19 07:58:30;;;;;;;5.80;5.45;;;;;;;3.16;100.00;101727.44;5045248;28;20047;-83
2023/12/19 08:00:57;;;;;;;1.42;1.33;;;;;;;3.61;100.00;101785.88;5045391;28;20060;-81
2023/12/19 08:03:28;;;;;;;5.35;4.68;;;;;;;3.25;100.00;101684.59;5042728;28;20129;-82
2023/12/19 08:05:56;;;;;;;1.85;1.75;;;;;;;3.87;100.00;101772.47;5041673;28;20467;-81
2023/12/19 08:08:23;;;;;;;2.15;2.05;;;;;;;4.01;100.00;101758.47;5038860;28;20044;-81
2023/12/19 08:10:49;;;;;;;2.90;2.70;;;;;;;3.35;100.00;101690.34;5041043;28;20430;-84
2023/12/19 08:13:16;;;;;;;0.95;0.95;;;;;;;3.62;100.00;101765.19;5044641;28;20044;-84
2023/12/19 08:15:42;;;;;;;0.82;0.82;;;;;;;3.62;100.00;101749.59;5044344;28;20052;-82
2023/12/19 08:18:09;;;;;;;0.32;0.32;;;;;;;3.90;100.00;101745.78;5046917;28;20037;-82
2023/12/19 08:20:35;;;;;;;2.83;2.67;;;;;;;4.11;100.00;101762.38;5063523;28;20061;-81
2023/12/19 08:23:02;;;;;;;1.33;1.23;;;;;;;3.40;100.00;101666.34;5062240;28;20049;-80
2023/12/19 08:25:27;;;;;;;2.92;2.72;;;;;;;4.16;100.00;101753.09;5062652;28;20043;-80
2023/12/19 08:27:55;;;;;;;9.65;9.10;;;;;;;3.78;100.00;101702.81;5065503;28;20032;-79
2023/12/19 08:30:22;;;;;;;0.98;0.98;;;;;;;4.01;100.00;101742.88;5058916;28;20098;-78
2023/12/19 08:32:48;;;;;;;1.65;1.55;;;;;;;3.54;100.00;101636.75;5063248;28;20151;-80
2023/12/19 08:35:13;;;;;;;3.00;2.80;;;;;;;4.24;100.00;101745.69;5064405;28;20143;-79
2023/12/19 08:37:39;;;;;;;0.70;0.70;;;;;;;3.56;100.00;101585.84;5059789;28;20052;-80
2023/12/19 08:40:06;;;;;;;1.90;1.75;;;;;;;3.86;100.00;101633.06;5063113;28;20032;-82
2023/12/19 08:42:31;;;;;;;6.40;5.88;;;;;;;4.43;100.00;101726.66;5047020;28;20049;-82
2023/12/19 08:44:58;;;;;;;1.85;1.75;;;;;;;4.34;100.00;101695.03;5060064;28;20495;-82
2023/12/19 08:47:25;;;;;;;2.88;2.67;;;;;;;4.26;100.00;101637.53;5064161;28;20056;-84
2023/12/19 08:49:53;;;;;;;1.40;1.30;;;;;;;4.93;100.00;101715.03;5066248;28;20056;-82
2023/12/19 08:52:24;;;;;;;4.68;3.55;;;;;;;4.62;100.00;101659.06;5050338;28;20037;-82
2023/12/19 08:54:53;;;;;;;1.05;0.95;;;;;;;5.07;100.00;101710.44;5065489;28;20048;-83
2023/12/19 08:57:20;;;;;;;4.57;4.22;;;;;;;5.13;100.00;101688.97;5068207;28;20090;-82
2023/12/19 08:59:47;;;;;;;3.28;3.13;;;;;;;5.33;100.00;101680.31;5065198;28;20055;-83
2023/12/19 09:02:12;;;;;;;2.63;2.53;;;;;;;5.03;100.00;101649.59;5060151;28;20574;-83
2023/12/19 09:04:39;;;;;;;1.17;1.15;;;;;;;5.45;100.00;101662.59;5054464;28;20053;-83
2023/12/19 09:07:05;;;;;;;1.98;1.85;;;;;;;5.46;100.00;101660.91;5061064;28;20028;-74
2023/12/19 09:09:31;;;;;;;2.25;2.15;;;;;;;5.18;100.00;101567.81;5038335;28;21756;-75
2023/12/19 09:11:57;;;;;;;5.05;4.57;;;;;;;5.00;100.00;101537.59;5045697;28;20052;-71
2023/12/19 09:14:23;;;;;;;1.75;1.65;;;;;;;5.41;100.00;101616.47;5054809;28;20105;-72
2023/12/19 09:16:49;;;;;;;3.10;2.90;;;;;;;5.43;100.00;101609.59;5063841;28;20116;-72
2023/12/19 09:19:18;;;;;;;2.38;2.28;;;;;;;5.48;100.00;101617.59;5037097;28;20140;-72
2023/12/19 09:21:44;;;;;;;3.25;3.05;;;;;;;5.18;100.00;101540.06;5039674;28;20061;-72
2023/12/19 09:25:59;;;;;;;1.58;1.48;;;;;;;5.50;100.00;101546.53;5027168;27;1433299;-73
2023/12/19 09:28:29;;;;;;;1.40;1.40;;;;;;;5.62;100.00;101529.59;5002950;28;20045;-73
2023/12/19 09:30:55;;;;;;;3.03;2.38;;;;;;;5.84;100.00;101516.56;5000642;28;20033;-73
2023/12/19 09:33:21;;;;;;;0.85;0.85;;;;;;;6.38;100.00;101598.47;4998617;28;20052;-81
2023/12/19 09:35:46;;;;;;;1.48;1.38;;;;;;;6.02;100.00;101508.59;5016496;28;20054;-74
2023/12/19 09:38:12;;;;;;;4.85;4.57;;;;;;;6.68;100.00;101596.94;5000755;28;20311;-74
2023/12/19 09:40:38;;;;;;;0.77;0.77;;;;;;;6.51;100.00;101572.00;4999365;28;20050;-73
2023/12/19 09:43:04;;;;;;;38.55;14.50;;;;;;;6.12;100.00;101478.53;5008675;28;20117;-75
2023/12/19 09:45:29;;;;;;;2.67;2.47;;;;;;;6.88;100.00;101557.59;4999983;28;20188;-74
2023/12/19 09:47:59;;;;;;;0.90;0.73;;;;;;;7.01;100.00;101569.34;5001139;28;20137;-75
2023/12/19 09:50:28;;;;;;;0.80;0.80;;;;;;;6.52;100.00;101449.50;4997588;28;20050;-76
2023/12/19 09:53:00;;;;;;;24.10;14.00;;;;;;;7.31;100.00;101551.19;4994465;28;20046;-74
2023/12/19 09:55:31;;;;;;;3.80;3.60;;;;;;;6.81;100.00;101452.16;4993368;28;20046;-79
2023/12/19 09:57:58;;;;;;;9.70;8.77;;;;;;;6.47;100.00;101442.34;4999803;28;20083;-78
2023/12/19 10:00:25;;;;;;;4.70;4.35;;;;;;;6.28;100.00;101452.16;4998574;28;20066;-78
2023/12/19 10:02:52;;;;;;;0.70;0.70;;;;;;;6.73;100.00;101444.09;4986377;28;20064;-79
2023/12/19 10:05:19;;;;;;;3.40;3.15;;;;;;;7.11;100.00;101517.47;4997280;28;20054;-79
2023/12/19 10:07:47;;;;;;;2.35;2.25;;;;;;;6.95;100.00;101436.94;5001305;28;20034;-76
2023/12/19 10:10:12;;;;;;;2.15;2.05;;;;;;;7.32;100.00;101534.66;5006491;28;20034;-75
2023/12/19 10:12:49;;;;;;;2.53;1.63;;;;;;;7.33;100.00;101505.13;5005258;28;20416;-78
2023/12/19 10:15:15;;;;;;;0.47;0.40;;;;;;;7.06;100.00;101489.47;4996976;28;20061;-78
2023/12/19 10:18:11;;;;;;;1.42;1.33;;;;;;;6.90;100.00;101438.53;4996768;28;20377;-78
2023/12/19 10:20:42;;;;;;;1.45;0.95;;;;;;;7.25;100.00;101494.41;4991243;28;20165;-78
2023/12/19 10:23:09;;;;;;;1.80;1.70;;;;;;;7.26;100.00;101407.47;4992909;28;20065;-77
2023/12/19 10:25:38;;;;;;;0.50;0.50;;;;;;;7.86;100.00;101445.72;5004579;28;20049;-78
2023/12/19 10:28:07;;;;;;;0.90;0.70;;;;;;;7.77;100.00;101395.81;5019505;28;20049;-77
2023/12/19 10:30:33;;;;;;;2.30;2.15;;;;;;;7.91;100.00;101459.78;5009158;28;23087;-78
2023/12/19 10:32:59;;;;;;;1.45;1.33;;;;;;;8.15;100.00;101456.97;5036780;28;20057;-79
2023/12/19 10:35:25;;;;;;;10.18;9.23;;;;;;;8.15;100.00;101451.75;5043901;28;20033;-76
2023/12/19 10:37:51;;;;;;;5.35;5.05;;;;;;;8.21;100.00;101401.34;5038626;28;20041;-77
2023/12/19 10:40:19;;;;;;;5.93;5.63;;;;;;;8.52;100.00;101430.91;5027464;28;20112;-75
2023/12/19 10:42:58;;;;;;;7.18;6.70;;;;;;;8.65;100.00;101412.06;5027005;28;20053;-79
2023/12/19 10:45:26;;;;;;;8.85;7.72;;;;;;;9.14;100.00;101483.88;5029098;28;20052;-78
2023/12/19 10:47:51;;;;;;;2.78;2.60;;;;;;;9.25;100.00;101463.19;5030790;28;20045;-78
2023/12/19 10:50:17;;;;;;;11.65;3.20;;;;;;;8.46;100.00;101397.66;5025187;28;20042;-78
2023/12/19 10:52:48;;;;;;;1.95;1.85;;;;;;;8.97;100.00;101470.41;5017973;28;20041;-78
2023/12/19 10:55:18;;;;;;;0.45;0.40;;;;;;;8.78;100.00;101379.19;5018679;28;20026;-78
2023/12/19 10:57:48;;;;;;;8.48;7.78;;;;;;;9.37;100.00;101361.28;5009143;28;20053;-79
2023/12/19 11:00:22;;;;;;;2.00;1.90;;;;;;;9.74;100.00;101432.78;5014107;28;20048;-79
2023/12/19 11:03:13;;;;;;;3.72;3.30;;;;;;;9.71;100.00;101458.91;5022752;28;20060;-79
2023/12/19 11:05:45;;;;;;;4.32;4.10;;;;;;;10.19;100.00;101441.47;5022321;28;20057;-79
2023/12/19 11:08:22;;;;;;;2.90;1.58;;;;;;;9.80;100.00;101349.00;5036904;28;20576;-79
2023/12/19 11:10:58;;;;;;;1.30;1.25;;;;;;;9.78;100.00;101431.09;5024970;28;20119;-79
2023/12/19 11:13:26;;;;;;;0.38;0.38;;;;;;;9.63;100.00;101389.75;5024882;28;20357;-78
2023/12/19 11:16:03;;;;;;;5.40;4.90;;;;;;;9.79;100.00;101367.34;5014924;28;20441;-77
2023/12/19 11:18:44;;;;;;;6.72;6.10;;;;;;;9.87;100.00;101413.78;5013386;28;21726;-80
2023/12/19 11:21:20;;;;;;;10.60;4.28;;;;;;;9.46;100.00;101411.25;5018914;28;20048;-80
2023/12/19 11:24:05;;;;;;;2.25;2.05;;;;;;;9.25;100.00;101340.97;5024209;28;20037;-77